M I D A S
Marine Information and Data Acquisition System
Tripno 584 of the Zeeleeuw from 2003-09-05 06:59:14 to 2003-09-05 13:47:11
Back to CruiseResearch ActivitiesStationsMapUnderway DataData graphs

EquipmentUnitsComment
TimeDGPSUTC
LatitudeDGPSDM.mWGS84
LongitudeDGPSDM.mWGS84
TemperatureSBE03/SBE38deg celciusITS90
ConductivitySBE21S/mITS90
SalinitySBE21 Practical Salinity Units
ChlorophylAChelsea fluorimeterg/lCalibrated in Aceton
Missing or incorrect values are displayed as -999
Sea surface data collected by the RV Zeeleeuw from 2003-09-05 06:59:14 to 2003-09-05 13:47:11
Time Latitude Longitude Temperature Conductivity Salinity ChlorophylA
2003-09-05 07:00:20 51°14.44 2°54.93 -999 0.065701 0.326802 -0.545283
2003-09-05 07:01:20 51°14.46 2°54.73 24.320085 0.065701 0.326899 -0.578993
2003-09-05 07:02:20 51°14.45 2°54.59 24.463057 0.065701 0.326945 -0.578993
2003-09-05 07:03:20 51°14.45 2°54.5 18.740327 0.192941 1.010906 -0.545283
2003-09-05 07:04:20 51°14.47 2°54.43 18.612903 4.214987 30.798761 2.252597
2003-09-05 07:05:20 51°14.47 2°54.37 18.639025 4.289555 31.616908 2.117759
2003-09-05 07:06:20 51°14.47 2°54.32 18.607083 4.361174 32.242058 2.016631
2003-09-05 07:07:20 51°14.44 2°54.16 18.627348 4.360436 32.247632 1.848084
2003-09-05 07:08:20 51°14.35 2°53.88 18.636839 4.360541 32.237385 2.016631
2003-09-05 07:09:20 51°14.25 2°53.59 18.631062 4.360014 32.233029 1.915503
2003-09-05 07:10:20 51°14.15 2°53.31 18.631722 4.35706 32.216962 1.713247
2003-09-05 07:11:20 51°14.05 2°53.01 18.621612 4.3559 32.211819 1.679537
2003-09-05 07:12:20 51°13.95 2°52.72 18.649876 4.354213 32.209539 1.51099
2003-09-05 07:13:20 51°13.85 2°52.43 18.622313 4.35569 32.226749 1.342443
2003-09-05 07:14:20 51°13.74 2°52.13 18.659941 4.357799 32.241965 1.342443
2003-09-05 07:15:20 51°13.64 2°51.85 18.632836 4.362124 32.274937 1.275024
2003-09-05 07:16:20 51°13.54 2°51.55 18.634569 4.365394 32.298073 1.241315
2003-09-05 07:17:20 51°13.44 2°51.27 18.635106 4.372039 32.353581 1.173896
2003-09-05 07:18:20 51°13.34 2°50.98 18.672974 4.377946 32.404675 1.140187
2003-09-05 07:19:20 51°13.24 2°50.68 18.642037 4.387334 32.476749 1.106477
2003-09-05 07:20:20 51°13.13 2°50.39 18.640882 4.391026 32.507859 1.072768
2003-09-05 07:21:20 51°13.03 2°50.1 18.687654 4.393452 32.527937 1.005349
2003-09-05 07:22:20 51°12.93 2°49.8 18.69895 4.399465 32.568153 1.039059
2003-09-05 07:23:20 51°12.83 2°49.51 18.677263 4.407482 32.62663 1.005349
2003-09-05 07:24:20 51°12.73 2°49.22 18.706329 4.414549 32.674426 1.039059
2003-09-05 07:25:20 51°12.62 2°48.93 18.73324 4.424359 32.733061 0.97164
2003-09-05 07:26:20 51°12.52 2°48.64 18.738802 4.435541 32.809199 1.005349
2003-09-05 07:27:20 51°12.42 2°48.35 18.755404 4.442608 32.862582 0.93793
2003-09-05 07:28:20 51°12.32 2°48.06 18.778509 4.451786 32.922657 0.97164
2003-09-05 07:29:20 51°12.22 2°47.76 18.790696 4.464339 33.010056 0.870512
2003-09-05 07:30:20 51°12.11 2°47.47 18.793578 4.471091 33.057385 0.870512
2003-09-05 07:31:20 51°12.01 2°47.18 18.783614 4.477421 33.105195 0.904221
2003-09-05 07:32:20 51°11.91 2°46.89 18.781679 4.479531 33.132329 0.93793
2003-09-05 07:33:20 51°11.81 2°46.6 18.792054 4.482379 33.157042 0.836802
2003-09-05 07:34:20 51°11.72 2°46.3 18.797365 4.486493 33.183111 0.904221
2003-09-05 07:35:20 51°11.62 2°46.01 18.814406 4.485227 33.168643 0.93793
2003-09-05 07:36:20 51°11.52 2°45.71 18.839424 4.491873 33.205385 0.97164
2003-09-05 07:37:20 51°11.42 2°45.42 18.858141 4.499469 33.248811 0.93793
2003-09-05 07:38:20 51°11.32 2°45.12 18.857072 4.506221 33.297222 0.93793
2003-09-05 07:39:20 51°11.22 2°44.83 18.849832 4.510757 33.333024 0.93793
2003-09-05 07:40:20 51°11.12 2°44.53 18.840864 4.512656 33.353308 0.93793
2003-09-05 07:41:20 51°11.01 2°44.24 18.843291 4.516771 33.391932 0.870512
2003-09-05 07:42:20 51°10.91 2°43.94 18.844114 4.522046 33.436733 0.870512
2003-09-05 07:43:20 51°10.81 2°43.64 18.856784 4.531119 33.50954 0.870512
2003-09-05 07:44:20 51°10.81 2°43.3 18.881334 4.54399 33.604012 1.039059
2003-09-05 07:45:20 51°10.85 2°42.96 18.92548 4.552536 33.655148 1.207606
2003-09-05 07:46:20 51°10.89 2°42.62 18.92474 4.559288 33.681017 1.5447
2003-09-05 07:47:20 51°10.93 2°42.29 18.930328 4.568678 33.75755 1.713247
2003-09-05 07:48:20 51°10.98 2°41.95 18.952307 4.575958 33.812006 1.949212
2003-09-05 07:49:20 51°10.97 2°41.62 18.979575 4.58577 33.873499 2.387435
2003-09-05 07:50:20 51°10.86 2°41.35 18.979821 4.595054 33.938133 2.421144
2003-09-05 07:51:20 51°10.74 2°41.07 18.951773 4.596848 33.948908 2.454853
2003-09-05 07:52:18 51°10.61 2°40.82 18.951526 4.591256 33.925284 2.050341
2003-09-05 07:53:19 51°10.47 2°40.57 18.864392 4.585876 33.907455 1.814375
2003-09-05 07:54:19 51°10.33 2°40.32 18.832882 4.581867 33.91552 1.915503
2003-09-05 07:55:19 51°10.19 2°40.07 18.819221 4.576803 33.89855 1.848084
2003-09-05 07:56:19 51°10.05 2°39.82 18.82564 4.573744 33.881898 1.814375
2003-09-05 07:57:19 51°9.91 2°39.57 18.835351 4.574271 33.883365 1.746956
2003-09-05 07:58:19 51°9.77 2°39.31 18.847487 4.575748 33.885724 1.746956
2003-09-05 07:59:19 51°9.74 2°38.99 18.82383 4.576276 33.881953 1.713247
2003-09-05 08:00:19 51°9.88 2°38.74 18.813871 4.57311 33.866173 1.645828
2003-09-05 08:01:19 51°10.1 2°38.61 18.816957 4.571212 33.869037 1.982922
2003-09-05 08:02:19 51°10.29 2°38.42 18.887748 4.57617 33.900286 2.185178
2003-09-05 08:03:19 51°10.44 2°38.18 18.960891 4.592734 33.973576 2.454853
2003-09-05 08:04:19 51°10.37 2°37.9 18.990455 4.606133 34.037382 2.758238
2003-09-05 08:05:19 51°10.21 2°37.68 18.987581 4.610142 34.051347 3.027913
2003-09-05 08:06:19 51°10.05 2°37.45 18.937477 4.603707 34.024863 2.859366
2003-09-05 08:07:19 51°9.9 2°37.22 18.893709 4.602124 34.023991 2.6234
2003-09-05 08:08:19 51°9.74 2°36.99 18.892353 4.592312 33.979398 2.454853
2003-09-05 08:09:19 51°9.59 2°36.76 18.83568 4.584611 33.940595 2.353725
2003-09-05 08:10:19 51°9.44 2°36.52 18.860691 4.578913 33.912561 2.353725
2003-09-05 08:11:19 51°9.29 2°36.3 18.747701 4.576065 33.901158 2.421144
2003-09-05 08:12:19 51°9.24 2°36.06 18.725535 4.56235 33.840873 2.421144
2003-09-05 08:13:19 51°9.28 2°35.93 18.761624 4.558657 33.827669 2.353725
2003-09-05 08:14:19 51°9.32 2°35.84 18.810743 4.568363 33.872178 2.320016
2003-09-05 08:15:19 51°9.34 2°35.77 18.831689 4.577014 33.910202 2.320016
2003-09-05 08:16:19 51°9.35 2°35.72 18.840412 4.579968 33.919566 2.252597
2003-09-05 08:17:19 51°9.36 2°35.68 18.843579 4.582078 33.928915 2.218888
2003-09-05 08:18:19 51°9.36 2°35.64 18.846911 4.583767 33.940003 2.252597
2003-09-05 08:19:19 51°9.35 2°35.6 18.848104 4.584189 33.942338 2.185178
2003-09-05 08:20:19 51°9.35 2°35.56 18.84794 4.5844 33.94234 2.151469
2003-09-05 08:21:19 51°9.35 2°35.53 18.845307 4.585138 33.949048 2.185178
2003-09-05 08:22:19 51°9.36 2°35.5 18.847899 4.585771 33.955464 2.286306
2003-09-05 08:23:19 51°9.38 2°35.47 18.844402 4.586404 33.9578 2.286306
2003-09-05 08:24:19 51°9.4 2°35.45 18.844361 4.589886 33.988429 2.387435
2003-09-05 08:25:19 51°9.42 2°35.44 18.841481 4.591363 34.001266 2.353725
2003-09-05 08:26:19 51°9.44 2°35.43 18.842921 4.593474 34.022277 2.454853
2003-09-05 08:27:19 51°9.47 2°35.43 18.877593 4.595267 34.036575 2.421144
2003-09-05 08:28:19 51°9.5 2°35.44 18.913439 4.595584 34.038617 2.421144
2003-09-05 08:29:19 51°9.53 2°35.45 18.879854 4.598433 34.061087 2.454853
2003-09-05 08:30:19 51°9.55 2°35.47 18.852876 4.599277 34.068092 2.454853
2003-09-05 08:31:19 51°9.58 2°35.49 18.856084 4.600859 34.075961 2.488563
2003-09-05 08:32:19 51°9.6 2°35.52 18.891531 4.60202 34.083251 2.488563
2003-09-05 08:33:25 51°9.63 2°35.55 18.895066 4.602758 34.087625 2.454853
2003-09-05 08:34:29 51°9.66 2°35.58 18.858964 4.602864 34.086745 2.488563
2003-09-05 08:35:29 51°9.73 2°35.63 18.888571 4.602442 34.084998 2.454853
2003-09-05 08:36:29 51°9.94 2°35.68 18.884377 4.602864 34.089085 2.488563
2003-09-05 08:37:29 51°10.17 2°35.73 18.883061 4.608245 34.111493 2.589691
2003-09-05 08:38:29 51°10.4 2°35.82 18.831195 4.610355 34.130751 2.65711
2003-09-05 08:39:29 51°10.62 2°35.95 18.903246 4.598116 34.070159 2.6234
2003-09-05 08:40:29 51°10.82 2°36.14 19.022427 4.613097 34.107301 3.095332
2003-09-05 08:41:29 51°11 2°36.39 19.036008 4.622065 34.117942 3.23017
2003-09-05 08:42:29 51°11.17 2°36.65 19.044459 4.627868 34.154275 3.162751
2003-09-05 08:43:29 51°11.33 2°36.93 19.067344 4.63251 34.183916 2.893076
2003-09-05 08:44:29 51°11.49 2°37.2 19.084319 4.635992 34.197531 2.724529
2003-09-05 08:45:29 51°11.65 2°37.47 19.096043 4.638735 34.205618 2.65711
2003-09-05 08:46:29 51°11.82 2°37.74 19.111905 4.640634 34.209061 2.65711
2003-09-05 08:47:29 51°11.87 2°37.93 19.099486 4.639685 34.193638 2.926785
2003-09-05 08:48:29 51°11.82 2°38.01 19.024397 4.638313 34.195132 2.791947
2003-09-05 08:49:29 51°11.79 2°37.9 19.006586 4.630928 34.188925 3.297589
2003-09-05 08:50:29 51°11.85 2°37.85 19.04856 4.629029 34.179636 2.859366
2003-09-05 08:51:31 51°11.86 2°37.86 19.049463 4.633143 34.1874 3.027913
2003-09-05 08:52:29 51°11.87 2°37.86 19.061603 4.633671 34.191179 3.095332
2003-09-05 08:53:29 51°11.88 2°37.86 19.05906 4.634515 34.188237 2.994204
2003-09-05 08:54:29 51°11.89 2°37.87 19.074233 4.635043 34.192598 3.061623
2003-09-05 08:55:29 51°11.9 2°37.87 19.073167 4.636203 34.194024 3.027913
2003-09-05 08:56:29 51°11.91 2°37.88 19.097601 4.636414 34.192268 3.061623
2003-09-05 08:57:29 51°11.93 2°37.89 19.086533 4.638102 34.18989 2.994204
2003-09-05 08:58:29 51°11.94 2°37.89 19.115798 4.637469 34.193405 2.994204
2003-09-05 08:59:29 51°11.95 2°37.9 19.118953 4.635675 34.17975 3.027913
2003-09-05 09:00:29 51°11.97 2°37.9 19.097765 4.635148 34.172477 3.061623
2003-09-05 09:01:29 51°11.98 2°37.91 19.142921 4.63673 34.177394 3.061623
2003-09-05 09:02:31 51°11.99 2°37.91 19.103749 4.637574 34.175044 3.027913
2003-09-05 09:03:29 51°12.01 2°37.92 19.0992 4.636308 34.168665 3.095332
2003-09-05 09:04:37 51°12.04 2°37.94 19.09551 4.634725 34.160834 3.027913
2003-09-05 09:05:37 51°12.19 2°38.06 19.107479 4.633248 34.15038 3.061623
2003-09-05 09:06:37 51°12.4 2°38.21 19.114814 4.63578 34.158485 3.027913
2003-09-05 09:07:37 51°12.61 2°38.36 19.096248 4.632298 34.130899 3.23017
2003-09-05 09:08:37 51°12.82 2°38.52 19.081408 4.62449 34.075733 3.297589
2003-09-05 09:09:37 51°13.03 2°38.67 19.122149 4.597057 33.860319 3.095332
2003-09-05 09:10:37 51°13.24 2°38.83 19.076652 4.596108 33.850176 3.061623
2003-09-05 09:11:37 51°13.45 2°38.99 19.102888 4.590832 33.805506 2.859366
2003-09-05 09:12:37 51°13.66 2°39.14 19.108093 4.576483 33.672838 2.488563
2003-09-05 09:13:41 51°13.89 2°39.31 19.143822 4.566987 33.584311 2.252597
2003-09-05 09:14:41 51°14.11 2°39.36 19.1921 4.557702 33.483356 1.746956
2003-09-05 09:15:41 51°14.29 2°39.16 19.176092 4.550316 33.393076 1.612118
2003-09-05 09:16:41 51°14.42 2°38.87 19.19255 4.552532 33.420936 1.915503
2003-09-05 09:17:41 51°14.4 2°38.54 19.181006 4.561077 33.478661 1.814375
2003-09-05 09:18:41 51°14.32 2°38.21 19.117396 4.571206 33.576753 2.353725
2003-09-05 09:19:41 51°14.24 2°37.88 19.08313 4.58007 33.687476 2.555982
2003-09-05 09:20:41 51°14.17 2°37.55 19.15787 4.584818 33.749005 2.6234
2003-09-05 09:21:41 51°14.1 2°37.22 19.16217 4.592097 33.760703 2.488563
2003-09-05 09:22:41 51°14.03 2°36.89 19.161638 4.591781 33.755225 2.421144
2003-09-05 09:23:41 51°13.96 2°36.56 19.185386 4.591886 33.752075 2.421144
2003-09-05 09:24:41 51°13.89 2°36.22 19.158648 4.590409 33.746803 2.454853
2003-09-05 09:25:41 51°13.83 2°35.89 19.166429 4.595052 33.780433 2.454853
2003-09-05 09:26:41 51°13.69 2°35.63 19.175642 4.600327 33.818699 2.286306
2003-09-05 09:27:41 51°13.53 2°35.38 19.186573 4.601382 33.828538 2.522272
2003-09-05 09:28:41 51°13.38 2°35.14 19.130958 4.602121 33.840953 2.555982
2003-09-05 09:29:41 51°13.22 2°34.9 19.148819 4.603704 33.878778 2.690819
2003-09-05 09:30:41 51°13.05 2°34.67 19.19693 4.62048 33.981819 2.724529
2003-09-05 09:31:41 51°12.91 2°34.42 19.188538 4.633669 34.071979 2.65711
2003-09-05 09:32:41 51°12.86 2°34.08 19.243944 4.640844 34.129945 2.6234
2003-09-05 09:33:41 51°12.77 2°33.77 19.257645 4.641582 34.105307 2.421144
2003-09-05 09:34:41 51°12.67 2°33.45 19.243616 4.640843 34.083021 2.555982
2003-09-05 09:35:41 51°12.58 2°33.13 19.199754 4.641898 34.102123 2.589691
2003-09-05 09:36:41 51°12.5 2°32.81 19.279643 4.643587 34.131089 2.522272
2003-09-05 09:37:41 51°12.42 2°32.48 19.302084 4.647174 34.138026 2.488563
2003-09-05 09:38:41 51°12.34 2°32.15 19.371365 4.648861 34.102153 2.522272
2003-09-05 09:39:41 51°12.26 2°31.82 19.332403 4.650971 34.098704 2.589691
2003-09-05 09:40:41 51°12.18 2°31.49 19.360545 4.650338 34.098121 2.6234
2003-09-05 09:41:41 51°12.1 2°31.16 19.357768 4.650127 34.100429 2.960494
2003-09-05 09:42:41 51°12.02 2°30.83 19.346046 4.65382 34.108253 2.758238
2003-09-05 09:43:41 51°11.94 2°30.5 19.357849 4.654242 34.119804 2.6234
2003-09-05 09:44:41 51°11.86 2°30.18 19.402429 4.656247 34.113756 2.488563
2003-09-05 09:45:41 51°11.78 2°29.85 19.413815 4.657196 34.095027 2.488563
2003-09-05 09:46:41 51°11.7 2°29.52 19.410714 4.657723 34.09129 2.522272
2003-09-05 09:47:41 51°11.62 2°29.19 19.396511 4.657407 34.09215 2.488563
2003-09-05 09:48:41 51°11.56 2°28.85 19.374672 4.655613 34.090107 2.522272
2003-09-05 09:49:41 51°11.5 2°28.51 19.379 4.655825 34.105675 2.589691
2003-09-05 09:50:41 51°11.44 2°28.16 19.370099 4.656774 34.111741 2.589691
2003-09-05 09:51:41 51°11.38 2°27.81 19.391899 4.658357 34.128775 2.589691
2003-09-05 09:52:41 51°11.32 2°27.46 19.345311 4.657513 34.132813 2.555982
2003-09-05 09:53:41 51°11.26 2°27.11 19.350866 4.657197 34.141767 2.589691
2003-09-05 09:54:41 51°11.2 2°26.76 19.353316 4.660679 34.157658 2.488563
2003-09-05 09:55:41 51°11.15 2°26.42 19.372059 4.661734 34.166904 2.421144
2003-09-05 09:56:41 51°11.1 2°26.06 19.417446 4.665532 34.184807 2.353725
2003-09-05 09:57:41 51°11.07 2°25.71 19.353398 4.670597 34.222354 2.050341
2003-09-05 09:58:41 51°11.05 2°25.35 19.334037 4.671125 34.249277 2.050341
2003-09-05 09:59:41 51°11.13 2°25.01 19.348783 4.670387 34.248423 2.218888
2003-09-05 10:00:41 51°11.32 2°24.83 19.35981 4.671758 34.251582 1.949212
2003-09-05 10:01:41 51°11.55 2°24.84 19.314957 4.674396 34.277323 1.713247
2003-09-05 10:02:41 51°11.79 2°24.89 19.316959 4.67503 34.310985 1.51099
2003-09-05 10:03:41 51°12.02 2°24.96 19.301921 4.678723 34.333809 1.241315
2003-09-05 10:04:41 51°12.25 2°25.03 19.279807 4.683788 34.394123 1.106477
2003-09-05 10:05:41 51°12.48 2°25.09 19.288719 4.6821 34.39305 1.140187
2003-09-05 10:06:41 51°12.7 2°25.15 19.28782 4.682628 34.382237 1.140187
2003-09-05 10:07:41 51°12.92 2°25.21 19.35544 4.679462 34.362587 1.376153
2003-09-05 10:08:41 51°13.04 2°25.28 19.400389 4.680622 34.312823 1.578409
2003-09-05 10:09:41 51°13.1 2°25.35 19.412183 4.683154 34.308102 1.578409
2003-09-05 10:10:41 51°13.13 2°25.4 19.413284 4.68347 34.304904 1.612118
2003-09-05 10:11:41 51°13.14 2°25.44 19.414753 4.683365 34.301139 1.645828
2003-09-05 10:12:41 51°13.16 2°25.47 19.417854 4.683048 34.296223 1.713247
2003-09-05 10:13:41 51°13.17 2°25.5 19.415855 4.684103 34.302568 1.814375
2003-09-05 10:14:41 51°13.18 2°25.53 19.423362 4.682098 34.286688 1.848084
2003-09-05 10:15:41 51°13.2 2°25.56 19.419894 4.684209 34.29764 1.848084
2003-09-05 10:16:41 51°13.21 2°25.59 19.421526 4.68252 34.28552 1.780665
2003-09-05 10:17:45 51°13.23 2°25.63 19.40247 4.685053 34.309205 1.746956
2003-09-05 10:18:45 51°13.24 2°25.66 19.394185 4.683154 34.304623 1.713247
2003-09-05 10:19:49 51°13.26 2°25.7 19.380633 4.683048 34.314195 1.814375
2003-09-05 10:20:49 51°13.27 2°25.73 19.371243 4.680199 34.298911 1.814375
2003-09-05 10:21:53 51°13.29 2°25.77 19.354378 4.67925 34.303291 1.713247
2003-09-05 10:22:53 51°13.3 2°25.8 19.366139 4.680727 34.324142 1.679537
2003-09-05 10:23:55 51°13.31 2°25.83 19.373407 4.679883 34.306753 1.679537
2003-09-05 10:24:53 51°13.32 2°25.86 19.371896 4.679039 34.293435 1.713247
2003-09-05 10:25:55 51°13.34 2°25.89 19.38643 4.679566 34.29893 1.746956
2003-09-05 10:26:53 51°13.35 2°25.92 19.389777 4.679355 34.288497 1.780665
2003-09-05 10:27:55 51°13.36 2°25.95 19.381245 4.680094 34.289927 1.746956
2003-09-05 10:28:53 51°13.37 2°25.97 19.386144 4.677245 34.272322 1.848084
2003-09-05 10:29:55 51°13.38 2°26 19.382551 4.677034 34.271747 1.915503
2003-09-05 10:30:55 51°13.39 2°26.03 19.367976 4.67524 34.257013 1.881794
2003-09-05 10:31:53 51°13.41 2°26.1 19.359442 4.675135 34.263099 2.016631
2003-09-05 10:32:55 51°13.46 2°26.39 19.349845 4.673657 34.261394 1.746956
2003-09-05 10:33:55 51°13.55 2°26.73 19.41406 4.671231 34.243769 1.915503
2003-09-05 10:34:53 51°13.64 2°27.05 19.423036 4.669858 34.206455 1.982922
2003-09-05 10:35:53 51°13.75 2°27.36 19.429604 4.66933 34.178437 1.982922
2003-09-05 10:36:53 51°13.87 2°27.67 19.408388 4.669963 34.182476 2.016631
2003-09-05 10:37:55 51°14.01 2°27.98 19.416385 4.668381 34.171223 2.016631
2003-09-05 10:38:53 51°14.14 2°28.26 19.415284 4.667009 34.160546 2.050341
2003-09-05 10:39:53 51°14.28 2°28.55 19.475525 4.666376 34.150737 2.08405
2003-09-05 10:40:53 51°14.42 2°28.84 19.479602 4.661943 34.07354 2.08405
2003-09-05 10:41:53 51°14.56 2°29.12 19.474098 4.662682 34.074419 2.016631
2003-09-05 10:42:55 51°14.71 2°29.41 19.483596 4.657511 34.045853 2.252597
2003-09-05 10:43:53 51°14.86 2°29.67 19.507195 4.656245 34.013108 2.117759
2003-09-05 10:44:55 51°15.02 2°29.94 19.530419 4.657616 34.012873 2.218888
2003-09-05 10:45:53 51°15.18 2°30.18 19.53437 4.65941 34.006929 2.117759
2003-09-05 10:46:55 51°15.36 2°30.43 19.565321 4.657405 33.983667 2.218888
2003-09-05 10:47:55 51°15.53 2°30.66 19.562512 4.658038 33.967122 2.151469
2003-09-05 10:48:55 51°15.7 2°30.9 19.524145 4.656771 33.957346 2.185178
2003-09-05 10:49:53 51°15.87 2°31.13 19.548463 4.64717 33.905128 2.286306
2003-09-05 10:50:53 51°16.04 2°31.36 19.511799 4.646431 33.889393 2.151469
2003-09-05 10:51:55 51°16.22 2°31.61 19.528545 4.642422 33.870305 2.08405
2003-09-05 10:52:55 51°16.39 2°31.84 19.543086 4.642844 33.872045 2.08405
2003-09-05 10:53:53 51°16.56 2°32.07 19.580995 4.645059 33.870204 1.982922
2003-09-05 10:54:55 51°16.74 2°32.32 19.600329 4.649174 33.88217 2.08405
2003-09-05 10:55:55 51°16.91 2°32.55 19.522434 4.651073 33.888567 2.050341
2003-09-05 10:56:55 51°17.09 2°32.77 19.570573 4.635985 33.822252 1.848084
2003-09-05 10:57:55 51°17.27 2°33 19.526182 4.640205 33.829984 1.915503
2003-09-05 10:58:53 51°17.44 2°33.22 19.622545 4.639361 33.831625 1.881794
2003-09-05 10:59:55 51°17.62 2°33.46 19.622016 4.645058 33.826965 2.016631
2003-09-05 11:00:55 51°17.79 2°33.69 19.639508 4.640204 33.773186 1.848084
2003-09-05 11:01:55 51°17.96 2°33.92 19.650652 4.636827 33.733764 1.848084
2003-09-05 11:02:53 51°18.13 2°34.13 19.684397 4.630707 33.669769 1.780665
2003-09-05 11:03:55 51°18.32 2°34.34 19.695696 4.631023 33.646958 1.679537
2003-09-05 11:04:55 51°18.51 2°34.52 19.636173 4.628069 33.624041 1.780665
2003-09-05 11:05:55 51°18.71 2°34.67 19.611031 4.620684 33.603354 1.848084
2003-09-05 11:06:55 51°18.92 2°34.83 19.694192 4.617202 33.582318 1.780665
2003-09-05 11:07:53 51°19.11 2°34.98 19.708903 4.623848 33.582382 1.679537
2003-09-05 11:08:53 51°19.31 2°35.13 19.691876 4.621632 33.559298 1.746956
2003-09-05 11:09:53 51°19.42 2°35.2 19.699313 4.618784 33.538937 1.746956
2003-09-05 11:10:53 51°19.46 2°35.24 19.700776 4.617306 33.526924 1.679537
2003-09-05 11:11:53 51°19.47 2°35.27 19.655816 4.613614 33.515978 1.746956
2003-09-05 11:12:53 51°19.48 2°35.29 19.677365 4.609499 33.499343 1.814375
2003-09-05 11:13:53 51°19.48 2°35.31 19.703092 4.611609 33.497983 1.982922
2003-09-05 11:14:53 51°19.48 2°35.33 19.713576 4.614458 33.502634 1.814375
2003-09-05 11:15:53 51°19.48 2°35.35 19.701548 4.614985 33.503558 1.881794
2003-09-05 11:16:53 51°19.47 2°35.39 19.642477 4.613508 33.499962 1.780665
2003-09-05 11:17:53 51°19.47 2°35.44 19.629908 4.607284 33.495352 1.881794
2003-09-05 11:18:53 51°19.47 2°35.48 19.684234 4.605912 33.486432 1.713247
2003-09-05 11:19:53 51°19.47 2°35.53 19.688705 4.609921 33.479201 1.612118
2003-09-05 11:20:53 51°19.47 2°35.57 19.691266 4.610448 33.479565 1.578409
2003-09-05 11:21:53 51°19.47 2°35.61 19.672486 4.611925 33.491018 1.679537
2003-09-05 11:22:53 51°19.47 2°35.65 19.59927 4.608866 33.487452 1.713247
2003-09-05 11:23:53 51°19.47 2°35.69 19.632837 4.603169 33.484885 1.746956
2003-09-05 11:24:53 51°19.47 2°35.73 19.664477 4.604329 33.468492 1.679537
2003-09-05 11:25:53 51°19.46 2°35.76 19.718736 4.607389 33.475432 1.679537
2003-09-05 11:26:53 51°19.46 2°35.8 19.690534 4.609499 33.477451 1.645828
2003-09-05 11:27:53 51°19.45 2°35.84 19.702726 4.611081 33.478545 1.612118
2003-09-05 11:28:53 51°19.44 2°35.97 19.739899 4.61298 33.482773 1.5447
2003-09-05 11:29:53 51°19.5 2°36.29 19.733888 4.614985 33.479454 1.578409
2003-09-05 11:30:53 51°19.57 2°36.62 19.700004 4.617095 33.501084 1.848084
2003-09-05 11:31:53 51°19.64 2°36.94 19.713047 4.611714 33.476965 2.08405
2003-09-05 11:32:53 51°19.71 2°37.27 19.764954 4.610659 33.461664 1.982922
2003-09-05 11:33:53 51°19.78 2°37.6 19.78996 4.612135 33.431702 1.881794
2003-09-05 11:34:53 51°19.85 2°37.93 19.765117 4.612135 33.42053 1.949212
2003-09-05 11:35:53 51°19.92 2°38.25 19.726089 4.608759 33.406528 1.949212
2003-09-05 11:36:53 51°19.99 2°38.58 19.676389 4.603801 33.410962 1.915503
2003-09-05 11:37:53 51°20.05 2°38.91 19.793734 4.600214 33.395788 1.848084
2003-09-05 11:38:55 51°20.11 2°39.25 19.932557 4.609602 33.374891 1.679537
2003-09-05 11:39:55 51°20.15 2°39.59 19.851867 4.618148 33.391811 1.645828
2003-09-05 11:40:53 51°20.2 2°39.92 19.740346 4.612557 33.393272 1.746956
2003-09-05 11:41:53 51°20.24 2°40.26 19.642396 4.606965 33.399227 1.5447
2003-09-05 11:42:53 51°20.25 2°40.56 19.75724 4.59536 33.372548 1.578409
2003-09-05 11:43:53 51°20.16 2°40.56 19.861072 4.603694 33.343687 1.409862
2003-09-05 11:44:53 51°20.17 2°40.4 19.812969 4.612134 33.360902 1.308734
2003-09-05 11:45:55 51°20.18 2°40.37 19.651465 4.607176 33.374715 1.5447
2003-09-05 11:46:53 51°20.18 2°40.35 19.566421 4.595677 33.394153 2.08405
2003-09-05 11:47:53 51°20.18 2°40.33 19.568253 4.588293 33.385587 2.117759
2003-09-05 11:48:53 51°20.18 2°40.31 19.620714 4.587765 33.383532 2.08405
2003-09-05 11:49:53 51°20.18 2°40.29 19.596015 4.59093 33.375676 2.08405
2003-09-05 11:50:53 51°20.18 2°40.27 19.613269 4.589242 33.37706 2.016631
2003-09-05 11:51:53 51°20.19 2°40.24 19.653498 4.590719 33.375639 1.982922
2003-09-05 11:52:53 51°20.25 2°40.19 19.731979 4.593672 33.372245 1.814375
2003-09-05 11:53:53 51°20.3 2°40.16 19.69911 4.597154 33.364209 1.713247
2003-09-05 11:54:53 51°20.32 2°40.13 19.641704 4.596204 33.377174 1.746956
2003-09-05 11:55:53 51°20.34 2°40.1 19.696671 4.592617 33.360865 1.814375
2003-09-05 11:56:53 51°20.41 2°40.11 19.768608 4.597786 33.353715 1.848084
2003-09-05 11:57:53 51°20.49 2°40.33 19.804975 4.605382 33.355708 1.578409
2003-09-05 11:58:53 51°20.53 2°40.66 19.898242 4.609075 33.363374 1.578409
2003-09-05 11:59:55 51°20.55 2°41.01 19.982036 4.616143 33.357239 1.443571
2003-09-05 12:00:55 51°20.55 2°41.35 19.892609 4.624688 33.369751 1.140187
2003-09-05 12:01:53 51°20.54 2°41.68 19.872829 4.6134 33.349477 1.140187
2003-09-05 12:02:53 51°20.52 2°42.02 19.907643 4.609285 33.32505 1.106477
2003-09-05 12:03:53 51°20.51 2°42.35 19.95147 4.613082 33.311405 1.173896
2003-09-05 12:04:53 51°20.49 2°42.69 19.877045 4.611183 33.287741 1.5447
2003-09-05 12:05:53 51°20.47 2°43.03 19.816458 4.600633 33.252797 1.578409
2003-09-05 12:06:53 51°20.45 2°43.37 19.782979 4.59156 33.22089 1.477281
2003-09-05 12:07:55 51°20.44 2°43.72 19.822381 4.58945 33.215436 1.409862
2003-09-05 12:08:53 51°20.43 2°44.05 19.812766 4.587972 33.192386 1.409862
2003-09-05 12:09:53 51°20.42 2°44.39 19.900146 4.585862 33.18637 1.51099
2003-09-05 12:10:53 51°20.42 2°44.74 19.849759 4.594302 33.201016 1.477281
2003-09-05 12:11:53 51°20.41 2°45.08 19.811386 4.589027 33.178789 1.51099
2003-09-05 12:12:53 51°20.41 2°45.41 19.778473 4.580059 33.118355 1.207606
2003-09-05 12:13:53 51°20.44 2°45.58 19.775347 4.563917 33.025179 1.005349
2003-09-05 12:14:53 51°20.46 2°45.64 19.784968 4.560963 33.006215 1.005349
2003-09-05 12:15:55 51°20.48 2°45.65 19.766863 4.561385 33.004671 1.005349
2003-09-05 12:16:53 51°20.5 2°45.66 19.764873 4.56033 33.008806 1.106477
2003-09-05 12:17:53 51°20.5 2°45.68 19.763005 4.559064 33.000204 1.173896
2003-09-05 12:18:53 51°20.48 2°45.7 19.746397 4.558642 32.997336 1.173896
2003-09-05 12:19:53 51°20.45 2°45.72 19.778311 4.557587 32.999265 1.106477
2003-09-05 12:20:53 51°20.41 2°45.73 19.783141 4.559802 32.992957 1.039059
2003-09-05 12:21:53 51°20.37 2°45.73 19.713047 4.560119 32.992765 1.039059
2003-09-05 12:22:55 51°20.34 2°45.73 19.670169 4.555372 33.0194 1.207606
2003-09-05 12:23:55 51°20.31 2°45.71 19.766619 4.553262 33.006701 1.173896
2003-09-05 12:24:53 51°20.29 2°45.7 19.765645 4.556954 32.982558 1.106477
2003-09-05 12:25:53 51°20.26 2°45.68 19.787768 4.556954 32.979252 1.140187
2003-09-05 12:26:55 51°20.24 2°45.66 19.793288 4.559064 32.983671 1.173896
2003-09-05 12:27:53 51°20.21 2°45.65 19.674641 4.559064 32.981468 1.140187
2003-09-05 12:28:53 51°20.18 2°45.62 19.74323 4.5559 33.020916 1.241315
2003-09-05 12:29:55 51°20.16 2°45.6 19.738072 4.554211 32.975214 1.207606
2003-09-05 12:30:55 51°20.13 2°45.57 19.743758 4.553367 32.969477 1.207606
2003-09-05 12:31:55 51°20.1 2°45.54 19.651709 4.553789 32.971794 1.207606
2003-09-05 12:32:53 51°20.01 2°45.6 19.64142 4.550309 33.01867 1.308734
2003-09-05 12:33:55 51°19.9 2°45.84 19.654637 4.54651 32.975665 1.140187
2003-09-05 12:34:53 51°19.78 2°46.1 19.683056 4.543768 32.966658 1.140187
2003-09-05 12:35:53 51°19.64 2°46.38 19.745504 4.545666 32.950044 1.106477
2003-09-05 12:36:55 51°19.51 2°46.66 19.726332 4.546509 32.922717 1.140187
2003-09-05 12:37:55 51°19.37 2°46.94 19.617744 4.544294 32.915222 1.072768
2003-09-05 12:38:53 51°19.26 2°47.22 19.489262 4.525094 32.849227 1.072768
2003-09-05 12:39:53 51°19.14 2°47.52 19.349681 4.502308 32.75824 1.072768
2003-09-05 12:40:53 51°19.02 2°47.81 19.351928 4.480999 32.696657 1.106477
2003-09-05 12:41:55 51°18.9 2°48.11 19.393328 4.479522 32.655342 1.106477
2003-09-05 12:42:53 51°18.8 2°48.4 19.419486 4.483741 32.667131 1.342443
2003-09-05 12:43:53 51°18.7 2°48.7 19.252001 4.488383 32.703858 1.612118
2003-09-05 12:44:53 51°18.59 2°48.99 19.273879 4.479945 32.72568 1.645828
2003-09-05 12:45:53 51°18.5 2°49.3 19.309318 4.484798 32.760343 1.713247
2003-09-05 12:46:53 51°18.41 2°49.61 19.314712 4.4906 32.780568 1.780665
2003-09-05 12:47:53 51°18.33 2°49.93 19.566339 4.497034 32.789318 1.881794
2003-09-05 12:48:53 51°18.25 2°50.25 19.491056 4.516338 32.81667 1.814375
2003-09-05 12:49:53 51°18.17 2°50.55 19.447307 4.509271 32.808293 1.746956
2003-09-05 12:50:53 51°18.13 2°50.68 19.392063 4.503047 32.786891 1.713247
2003-09-05 12:51:55 51°18.12 2°50.73 19.404919 4.49619 32.773026 1.645828
2003-09-05 12:52:53 51°18.1 2°50.76 19.378265 4.495452 32.770877 1.645828
2003-09-05 12:53:53 51°18.07 2°50.77 19.342125 4.493975 32.768238 1.612118
2003-09-05 12:54:55 51°18.03 2°50.76 19.301921 4.490389 32.773856 1.612118
2003-09-05 12:55:53 51°18 2°50.73 19.338898 4.488173 32.770177 1.645828
2003-09-05 12:56:53 51°17.97 2°50.69 19.424423 4.491654 32.758712 1.645828
2003-09-05 12:57:53 51°17.93 2°50.65 19.468512 4.499038 32.767494 1.5447
2003-09-05 12:58:53 51°17.9 2°50.6 19.478705 4.50273 32.772162 1.443571
2003-09-05 12:59:55 51°17.87 2°50.56 19.48058 4.504418 32.776519 1.342443
2003-09-05 13:00:55 51°17.83 2°50.52 19.478827 4.504418 32.775415 1.342443
2003-09-05 13:01:53 51°17.8 2°50.48 19.454893 4.504629 32.776029 1.241315
2003-09-05 13:02:55 51°17.77 2°50.44 19.453629 4.503891 32.781611 1.308734
2003-09-05 13:03:53 51°17.73 2°50.4 19.477115 4.502519 32.777622 1.342443
2003-09-05 13:04:55 51°17.7 2°50.36 19.437314 4.501886 32.770258 1.409862
2003-09-05 13:05:53 51°17.67 2°50.33 19.489344 4.500199 32.781371 1.376153
2003-09-05 13:06:53 51°17.63 2°50.29 19.438171 4.502308 32.773143 1.308734
2003-09-05 13:07:53 51°17.58 2°50.25 19.386838 4.501886 32.780201 1.308734
2003-09-05 13:08:55 51°17.53 2°50.32 19.392634 4.495135 32.774383 1.5447
2003-09-05 13:09:55 51°17.53 2°50.6 19.436131 4.497245 32.766143 1.241315
2003-09-05 13:10:53 51°17.52 2°50.92 19.321658 4.50252 32.798627 1.645828
2003-09-05 13:11:55 51°17.5 2°51.26 19.199795 4.495347 32.805467 1.780665
2003-09-05 13:12:55 51°17.48 2°51.6 19.188333 4.478786 32.780599 1.949212
2003-09-05 13:13:55 51°17.43 2°51.93 19.360422 4.478153 32.778199 2.016631
2003-09-05 13:14:55 51°17.31 2°52.22 19.373407 4.500515 32.802208 1.915503
2003-09-05 13:15:55 51°17.18 2°52.5 19.314998 4.497878 32.803404 1.746956
2003-09-05 13:16:55 51°17.05 2°52.78 19.370753 4.487329 32.754971 1.713247
2003-09-05 13:17:55 51°16.93 2°53.06 19.261571 4.48427 32.710629 1.679537
2003-09-05 13:18:55 51°16.8 2°53.34 19.356788 4.471928 32.687855 1.746956
2003-09-05 13:19:55 51°16.69 2°53.55 19.38349 4.47277 32.605254 1.5447
2003-09-05 13:20:55 51°16.62 2°53.59 19.520845 4.473825 32.580835 1.5447
2003-09-05 13:21:55 51°16.57 2°53.59 19.561372 4.480575 32.562778 1.477281
2003-09-05 13:22:55 51°16.53 2°53.57 19.655409 4.483528 32.53479 1.241315
2003-09-05 13:23:55 51°16.49 2°53.54 19.673503 4.490067 32.522896 1.106477
2003-09-05 13:24:55 51°16.46 2°53.51 19.661468 4.491544 32.527233 1.140187
2003-09-05 13:25:55 51°16.42 2°53.47 19.665981 4.490806 32.526699 1.106477
2003-09-05 13:26:55 51°16.39 2°53.43 19.659272 4.490384 32.520557 1.173896
2003-09-05 13:27:55 51°16.36 2°53.39 19.650733 4.489751 32.517608 1.207606
2003-09-05 13:28:55 51°16.33 2°53.35 19.605334 4.487747 32.521531 1.275024
2003-09-05 13:29:55 51°16.3 2°53.31 19.604439 4.484266 32.515121 1.342443
2003-09-05 13:30:55 51°16.27 2°53.28 19.66403 4.480573 32.480275 1.308734
2003-09-05 13:31:55 51°16.24 2°53.24 19.643128 4.487008 32.494302 1.308734
2003-09-05 13:32:55 51°16.21 2°53.2 19.668583 4.484687 32.493467 1.376153
2003-09-05 13:33:55 51°16.18 2°53.17 19.679316 4.486586 32.485986 1.308734
2003-09-05 13:34:55 51°16.16 2°53.13 19.674356 4.487535 32.486602 1.409862
2003-09-05 13:35:55 51°16.12 2°53.1 19.692201 4.486164 32.482025 1.409862
2003-09-05 13:36:55 51°16.09 2°53.06 19.699232 4.488063 32.481628 1.477281
2003-09-05 13:37:55 51°16.04 2°53.03 19.694842 4.486797 32.471381 1.409862
2003-09-05 13:38:55 51°15.87 2°53.01 19.602892 4.48648 32.460127 1.477281
2003-09-05 13:39:55 51°15.66 2°53.07 19.458074 4.471712 32.439463 1.578409
2003-09-05 13:40:55 51°15.5 2°53.26 19.392063 4.455468 32.38495 1.443571
2003-09-05 13:41:55 51°15.35 2°53.48 19.2565 4.445447 32.359655 1.5447
2003-09-05 13:42:55 51°15.2 2°53.7 19.19738 4.42857 32.326557 1.578409
2003-09-05 13:43:55 51°15.05 2°53.92 19.01939 4.422453 32.320992 1.645828
2003-09-05 13:44:55 51°14.9 2°54.14 18.95666 4.405788 32.320381 1.881794
2003-09-05 13:45:55 51°14.75 2°54.38 18.929589 4.39735 32.291952 1.848084
2003-09-05 13:46:55 51°14.62 2°54.62 18.989921 4.395663 32.284165 2.252597